createdAt,value
2018-09-04T00:09:38.865Z,93426.16
2018-09-04T00:24:42.622Z,93419.52
2018-09-04T00:39:46.463Z,93416.25
2018-09-04T00:54:50.175Z,93423.41
2018-09-04T01:09:53.927Z,93435.14
2018-09-04T01:24:57.682Z,93446.41
2018-09-04T01:40:01.442Z,93448.94
2018-09-04T01:55:05.224Z,93451.69
2018-09-04T02:10:08.990Z,93447.34
2018-09-04T02:25:12.733Z,93443.02
2018-09-04T02:40:16.500Z,93429.92
2018-09-04T02:55:20.298Z,93442.43
2018-09-04T03:10:24.032Z,93438.76
2018-09-04T03:25:27.751Z,93429.60
2018-09-04T03:40:31.491Z,93414.90
2018-09-04T03:55:35.219Z,93414.41
2018-09-04T04:10:38.950Z,93427.95
2018-09-04T04:25:42.748Z,93437.81
2018-09-04T04:40:46.473Z,93434.38
2018-09-04T04:55:50.287Z,93432.13
2018-09-04T05:10:54.091Z,93432.03
2018-09-04T05:25:57.823Z,93434.00
2018-09-04T05:41:02.174Z,93433.30
2018-09-04T05:56:06.019Z,93433.66
2018-09-04T06:11:09.783Z,93427.06
2018-09-04T06:26:13.507Z,93426.98
2018-09-04T06:41:17.295Z,93427.20
2018-09-04T06:56:21.022Z,93428.91
2018-09-04T07:11:24.794Z,93436.02
2018-09-04T07:26:28.614Z,93436.79
2018-09-04T07:41:32.352Z,93442.34
2018-09-04T07:56:36.180Z,93427.67
2018-09-04T08:11:39.941Z,93425.18
2018-09-04T08:26:43.710Z,93424.98
2018-09-04T08:41:47.444Z,93407.95
2018-09-04T08:56:51.155Z,93406.53
2018-09-04T09:11:54.926Z,93395.73
2018-09-04T09:26:58.775Z,93383.89
2018-09-04T09:42:02.534Z,93381.73
2018-09-04T09:57:06.298Z,93380.79
2018-09-04T10:12:13.394Z,93386.98
2018-09-04T10:27:17.214Z,93380.35
2018-09-04T10:42:26.069Z,93356.69
2018-09-04T10:57:29.923Z,93339.89
2018-09-04T11:12:33.653Z,93328.80
2018-09-04T11:27:37.635Z,93302.37
2018-09-04T11:42:42.035Z,93288.60
2018-09-04T11:57:46.231Z,93274.77
2018-09-04T12:12:50.050Z,93253.67
2018-09-04T12:27:53.796Z,93226.86
2018-09-04T12:42:57.594Z,93215.47
2018-09-04T12:58:04.636Z,93208.83
2018-09-04T13:13:08.375Z,93200.22
2018-09-04T13:28:12.195Z,93191.03
2018-09-04T13:43:15.946Z,93187.50
2018-09-04T13:58:19.642Z,93190.41
2018-09-04T14:13:23.385Z,93183.38
2018-09-04T14:28:41.580Z,93204.63
2018-09-04T14:43:30.975Z,93205.45
2018-09-04T14:58:34.751Z,93221.03
2018-09-04T15:14:09.711Z,93227.29
2018-09-04T15:29:13.479Z,93235.82
2018-09-04T15:44:17.216Z,93230.81
2018-09-04T15:59:20.999Z,93238.02
2018-09-04T16:14:24.731Z,93243.95
2018-09-04T16:29:28.455Z,93253.27
2018-09-04T16:44:32.233Z,93268.06
2018-09-04T16:59:36.042Z,93284.14
2018-09-04T17:14:39.803Z,93297.09
2018-09-04T17:29:44.040Z,93304.36
2018-09-04T17:44:49.258Z,93307.39
2018-09-04T17:59:53.295Z,93332.70
2018-09-04T18:14:57.117Z,93332.48
2018-09-04T18:30:01.809Z,93348.27
2018-09-04T18:45:06.711Z,93362.64
2018-09-04T19:00:11.063Z,93369.41
2018-09-04T19:15:15.507Z,93379.61
2018-09-04T19:30:19.358Z,93381.27
2018-09-04T19:45:23.268Z,93378.73
2018-09-04T20:00:27.042Z,93384.92
2018-09-04T20:15:30.815Z,93379.97
2018-09-04T20:30:34.614Z,93427.05
2018-09-04T20:45:38.391Z,93454.31
2018-09-04T21:00:53.335Z,93475.38
2018-09-04T21:15:57.049Z,93463.45
2018-09-04T21:31:00.829Z,93446.56
2018-09-04T21:46:04.861Z,93449.84
2018-09-04T22:01:08.754Z,93437.78
2018-09-04T22:16:12.521Z,93434.77
2018-09-04T22:31:16.286Z,93450.88
2018-09-04T22:46:19.994Z,93441.52
2018-09-04T23:01:23.734Z,93427.54
2018-09-04T23:16:27.450Z,93393.97
2018-09-04T23:31:31.204Z,93392.77
2018-09-04T23:46:34.903Z,93388.43
